sensor_id;sensor_type;location;lat;lon;timestamp;pressure;altitude;pressure_sealevel;temperature;humidity
17383;BME280;8809;51.892;8.384;2023-02-18T00:00:59;101073.50;;;8.64;100.00
17383;BME280;8809;51.892;8.384;2023-02-18T00:03:28;101065.06;;;8.68;100.00
17383;BME280;8809;51.892;8.384;2023-02-18T00:05:54;101070.34;;;8.70;100.00
17383;BME280;8809;51.892;8.384;2023-02-18T00:08:21;101076.44;;;8.70;100.00
17383;BME280;8809;51.892;8.384;2023-02-18T00:10:50;101065.22;;;8.71;100.00
17383;BME280;8809;51.892;8.384;2023-02-18T00:13:17;101075.72;;;8.73;100.00
17383;BME280;8809;51.892;8.384;2023-02-18T00:15:44;101061.81;;;8.72;100.00
17383;BME280;8809;51.892;8.384;2023-02-18T00:18:11;101078.34;;;8.73;100.00
17383;BME280;8809;51.892;8.384;2023-02-18T00:20:38;101068.81;;;8.73;100.00
17383;BME280;8809;51.892;8.384;2023-02-18T00:23:05;101083.53;;;8.73;100.00
17383;BME280;8809;51.892;8.384;2023-02-18T00:25:32;101074.91;;;8.74;100.00
17383;BME280;8809;51.892;8.384;2023-02-18T00:28:00;101071.34;;;8.72;100.00
17383;BME280;8809;51.892;8.384;2023-02-18T00:30:27;101073.13;;;8.73;100.00
17383;BME280;8809;51.892;8.384;2023-02-18T00:32:54;101054.44;;;8.80;100.00
17383;BME280;8809;51.892;8.384;2023-02-18T00:35:21;101053.53;;;8.79;100.00
17383;BME280;8809;51.892;8.384;2023-02-18T00:37:50;101053.72;;;8.82;100.00
17383;BME280;8809;51.892;8.384;2023-02-18T00:40:18;101051.94;;;8.81;100.00
17383;BME280;8809;51.892;8.384;2023-02-18T00:42:45;101044.38;;;8.86;100.00
17383;BME280;8809;51.892;8.384;2023-02-18T00:45:14;101057.38;;;8.86;100.00
17383;BME280;8809;51.892;8.384;2023-02-18T00:47:40;101053.16;;;8.88;100.00
17383;BME280;8809;51.892;8.384;2023-02-18T00:50:08;101060.16;;;8.89;100.00
17383;BME280;8809;51.892;8.384;2023-02-18T00:52:36;101054.13;;;8.90;100.00
17383;BME280;8809;51.892;8.384;2023-02-18T00:55:03;101062.03;;;8.91;100.00
17383;BME280;8809;51.892;8.384;2023-02-18T00:57:30;101068.13;;;8.92;100.00
17383;BME280;8809;51.892;8.384;2023-02-18T00:59:57;101062.28;;;8.96;100.00
17383;BME280;8809;51.892;8.384;2023-02-18T01:02:25;101062.28;;;8.96;100.00
17383;BME280;8809;51.892;8.384;2023-02-18T01:04:51;101058.88;;;8.97;100.00
17383;BME280;8809;51.892;8.384;2023-02-18T01:07:18;101049.34;;;8.98;100.00
17383;BME280;8809;51.892;8.384;2023-02-18T01:09:45;101057.25;;;8.99;100.00
17383;BME280;8809;51.892;8.384;2023-02-18T01:12:12;101050.34;;;9.00;100.00
17383;BME280;8809;51.892;8.384;2023-02-18T01:14:39;101050.34;;;9.00;100.00
17383;BME280;8809;51.892;8.384;2023-02-18T01:17:06;101046.03;;;9.00;100.00
17383;BME280;8809;51.892;8.384;2023-02-18T01:19:34;101039.94;;;9.00;100.00
17383;BME280;8809;51.892;8.384;2023-02-18T01:22:02;101046.03;;;9.00;100.00
17383;BME280;8809;51.892;8.384;2023-02-18T01:24:28;101040.81;;;9.00;100.00
17383;BME280;8809;51.892;8.384;2023-02-18T01:26:55;101044.41;;;9.02;100.00
17383;BME280;8809;51.892;8.384;2023-02-18T01:29:22;101041.00;;;9.03;100.00
17383;BME280;8809;51.892;8.384;2023-02-18T01:31:49;101034.97;;;9.04;100.00
17383;BME280;8809;51.892;8.384;2023-02-18T01:34:16;101029.84;;;9.06;100.00
17383;BME280;8809;51.892;8.384;2023-02-18T01:36:44;101033.44;;;9.08;100.00
17383;BME280;8809;51.892;8.384;2023-02-18T01:39:11;101029.03;;;9.07;100.00
17383;BME280;8809;51.892;8.384;2023-02-18T01:41:38;101016.09;;;9.08;100.00
17383;BME280;8809;51.892;8.384;2023-02-18T01:44:13;101019.69;;;9.10;100.00
17383;BME280;8809;51.892;8.384;2023-02-18T01:46:40;101018.06;;;9.12;100.00
17383;BME280;8809;51.892;8.384;2023-02-18T01:49:08;101016.44;;;9.14;100.00
17383;BME280;8809;51.892;8.384;2023-02-18T01:51:38;101008.63;;;9.14;100.00
17383;BME280;8809;51.892;8.384;2023-02-18T01:54:09;101009.59;;;9.16;100.00
17383;BME280;8809;51.892;8.384;2023-02-18T01:56:40;101008.88;;;9.19;100.00
17383;BME280;8809;51.892;8.384;2023-02-18T01:59:12;101019.53;;;9.23;100.00
17383;BME280;8809;51.892;8.384;2023-02-18T02:01:41;101005.06;;;9.28;100.00
17383;BME280;8809;51.892;8.384;2023-02-18T02:04:09;100993.84;;;9.29;100.00
17383;BME280;8809;51.892;8.384;2023-02-18T02:06:36;100987.13;;;9.35;100.00
17383;BME280;8809;51.892;8.384;2023-02-18T02:09:06;100994.94;;;9.35;100.00
17383;BME280;8809;51.892;8.384;2023-02-18T02:17:53;100983.31;;;9.44;100.00
17383;BME280;8809;51.892;8.384;2023-02-18T02:20:54;100979.97;;;9.47;100.00
17383;BME280;8809;51.892;8.384;2023-02-18T02:23:46;100960.13;;;9.49;100.00
17383;BME280;8809;51.892;8.384;2023-02-18T02:26:49;100957.75;;;9.53;100.00
17383;BME280;8809;51.892;8.384;2023-02-18T02:33:03;100958.16;;;9.61;100.00
17383;BME280;8809;51.892;8.384;2023-02-18T02:35:41;100959.91;;;9.62;100.00
17383;BME280;8809;51.892;8.384;2023-02-18T02:38:14;100953.25;;;9.67;100.00
17383;BME280;8809;51.892;8.384;2023-02-18T02:40:53;100938.59;;;9.69;100.00
17383;BME280;8809;51.892;8.384;2023-02-18T02:43:28;100937.09;;;9.74;100.00
17383;BME280;8809;51.892;8.384;2023-02-18T02:46:02;100936.38;;;9.77;100.00
17383;BME280;8809;51.892;8.384;2023-02-18T02:48:43;100916.41;;;9.77;100.00
17383;BME280;8809;51.892;8.384;2023-02-18T02:51:18;100910.41;;;9.78;100.00
17383;BME280;8809;51.892;8.384;2023-02-18T02:53:45;100913.00;;;9.78;100.00
17383;BME280;8809;51.892;8.384;2023-02-18T02:56:14;100904.41;;;9.81;100.00
17383;BME280;8809;51.892;8.384;2023-02-18T02:58:41;100908.88;;;9.83;100.00
17383;BME280;8809;51.892;8.384;2023-02-18T03:01:21;100900.25;;;9.84;100.00
17383;BME280;8809;51.892;8.384;2023-02-18T03:04:07;100905.63;;;9.87;100.00
17383;BME280;8809;51.892;8.384;2023-02-18T03:07:06;100896.09;;;9.88;100.00
17383;BME280;8809;51.892;8.384;2023-02-18T03:09:44;100888.94;;;9.84;100.00
17383;BME280;8809;51.892;8.384;2023-02-18T03:12:22;100884.47;;;9.81;100.00
17383;BME280;8809;51.892;8.384;2023-02-18T03:14:58;100882.53;;;9.77;100.00
17383;BME280;8809;51.892;8.384;2023-02-18T03:17:30;100887.75;;;9.77;100.00
17383;BME280;8809;51.892;8.384;2023-02-18T03:20:07;100882.53;;;9.77;100.00
17383;BME280;8809;51.892;8.384;2023-02-18T03:22:40;100878.88;;;9.74;100.00
17383;BME280;8809;51.892;8.384;2023-02-18T03:25:10;100869.28;;;9.73;100.00
17383;BME280;8809;51.892;8.384;2023-02-18T03:27:42;100867.50;;;9.72;100.00
17383;BME280;8809;51.892;8.384;2023-02-18T03:30:14;100862.34;;;9.73;100.00
17383;BME280;8809;51.892;8.384;2023-02-18T03:32:43;100867.66;;;9.75;100.00
17383;BME280;8809;51.892;8.384;2023-02-18T03:35:13;100864.97;;;9.73;100.00
17383;BME280;8809;51.892;8.384;2023-02-18T03:37:47;100855.69;;;9.78;100.00
17383;BME280;8809;51.892;8.384;2023-02-18T03:40:16;100847.69;;;9.75;100.00
